sensor_id;sensor_type;location;lat;lon;timestamp;P1;durP1;ratioP1;P2;durP2;ratioP2
77117;SDS011;66072;50.238;19.228;2023-04-28T00:01:22;49.70;;;32.70;;
77117;SDS011;66072;50.238;19.228;2023-04-28T00:03:50;53.70;;;31.10;;
77117;SDS011;66072;50.238;19.228;2023-04-28T00:06:18;51.90;;;31.80;;
77117;SDS011;66072;50.238;19.228;2023-04-28T00:08:45;45.90;;;27.90;;
77117;SDS011;66072;50.238;19.228;2023-04-28T00:11:13;42.10;;;27.00;;
77117;SDS011;66072;50.238;19.228;2023-04-28T00:13:41;45.30;;;28.90;;
77117;SDS011;66072;50.238;19.228;2023-04-28T00:16:08;43.10;;;26.40;;
77117;SDS011;66072;50.238;19.228;2023-04-28T00:18:36;49.70;;;26.30;;
77117;SDS011;66072;50.238;19.228;2023-04-28T00:21:04;47.70;;;29.20;;
77117;SDS011;66072;50.238;19.228;2023-04-28T00:23:31;48.00;;;29.20;;
77117;SDS011;66072;50.238;19.228;2023-04-28T00:25:59;43.70;;;27.40;;
77117;SDS011;66072;50.238;19.228;2023-04-28T00:28:26;50.60;;;29.10;;
77117;SDS011;66072;50.238;19.228;2023-04-28T00:31:01;41.80;;;25.80;;
77117;SDS011;66072;50.238;19.228;2023-04-28T00:33:28;48.10;;;29.20;;
77117;SDS011;66072;50.238;19.228;2023-04-28T00:35:59;44.70;;;27.10;;
77117;SDS011;66072;50.238;19.228;2023-04-28T00:38:27;41.00;;;23.90;;
77117;SDS011;66072;50.238;19.228;2023-04-28T00:40:55;43.50;;;26.10;;
77117;SDS011;66072;50.238;19.228;2023-04-28T00:43:23;41.00;;;28.00;;
77117;SDS011;66072;50.238;19.228;2023-04-28T00:45:51;49.30;;;30.40;;
77117;SDS011;66072;50.238;19.228;2023-04-28T00:48:19;36.80;;;24.70;;
77117;SDS011;66072;50.238;19.228;2023-04-28T00:50:47;37.90;;;25.80;;
77117;SDS011;66072;50.238;19.228;2023-04-28T00:53:15;41.00;;;23.60;;
77117;SDS011;66072;50.238;19.228;2023-04-28T00:55:42;48.50;;;27.70;;
77117;SDS011;66072;50.238;19.228;2023-04-28T00:58:13;41.40;;;24.80;;
77117;SDS011;66072;50.238;19.228;2023-04-28T01:00:40;37.60;;;24.10;;
77117;SDS011;66072;50.238;19.228;2023-04-28T01:03:08;37.40;;;23.80;;
77117;SDS011;66072;50.238;19.228;2023-04-28T01:05:36;44.00;;;24.30;;
77117;SDS011;66072;50.238;19.228;2023-04-28T01:08:04;32.20;;;21.20;;
77117;SDS011;66072;50.238;19.228;2023-04-28T01:10:31;37.00;;;23.20;;
77117;SDS011;66072;50.238;19.228;2023-04-28T01:12:59;36.20;;;21.70;;
77117;SDS011;66072;50.238;19.228;2023-04-28T01:15:26;40.70;;;24.10;;
77117;SDS011;66072;50.238;19.228;2023-04-28T01:17:55;37.50;;;23.90;;
77117;SDS011;66072;50.238;19.228;2023-04-28T01:20:22;41.30;;;26.20;;
77117;SDS011;66072;50.238;19.228;2023-04-28T01:22:50;35.30;;;22.80;;
77117;SDS011;66072;50.238;19.228;2023-04-28T01:25:18;39.80;;;23.80;;
77117;SDS011;66072;50.238;19.228;2023-04-28T01:27:45;47.50;;;31.80;;
77117;SDS011;66072;50.238;19.228;2023-04-28T01:30:13;43.70;;;27.50;;
77117;SDS011;66072;50.238;19.228;2023-04-28T01:32:40;41.20;;;24.70;;
77117;SDS011;66072;50.238;19.228;2023-04-28T01:35:08;40.70;;;24.10;;
77117;SDS011;66072;50.238;19.228;2023-04-28T01:37:36;44.50;;;24.50;;
77117;SDS011;66072;50.238;19.228;2023-04-28T01:40:03;42.50;;;27.40;;
77117;SDS011;66072;50.238;19.228;2023-04-28T01:42:31;42.00;;;26.10;;
77117;SDS011;66072;50.238;19.228;2023-04-28T01:44:59;44.20;;;24.50;;
77117;SDS011;66072;50.238;19.228;2023-04-28T01:47:27;39.90;;;23.70;;
77117;SDS011;66072;50.238;19.228;2023-04-28T01:49:54;38.40;;;25.00;;
77117;SDS011;66072;50.238;19.228;2023-04-28T01:52:22;39.30;;;24.30;;
77117;SDS011;66072;50.238;19.228;2023-04-28T01:54:49;41.60;;;25.50;;
77117;SDS011;66072;50.238;19.228;2023-04-28T01:57:17;39.30;;;24.40;;
77117;SDS011;66072;50.238;19.228;2023-04-28T01:59:46;37.40;;;24.10;;
77117;SDS011;66072;50.238;19.228;2023-04-28T02:02:14;44.40;;;26.90;;
77117;SDS011;66072;50.238;19.228;2023-04-28T02:04:42;35.80;;;24.40;;
77117;SDS011;66072;50.238;19.228;2023-04-28T02:07:09;41.20;;;26.40;;
77117;SDS011;66072;50.238;19.228;2023-04-28T02:09:37;41.00;;;25.90;;
77117;SDS011;66072;50.238;19.228;2023-04-28T02:12:05;40.00;;;27.00;;
77117;SDS011;66072;50.238;19.228;2023-04-28T02:14:32;44.60;;;27.00;;
77117;SDS011;66072;50.238;19.228;2023-04-28T02:17:00;45.00;;;28.70;;
77117;SDS011;66072;50.238;19.228;2023-04-28T02:19:27;37.70;;;27.00;;
77117;SDS011;66072;50.238;19.228;2023-04-28T02:21:55;46.40;;;30.00;;
77117;SDS011;66072;50.238;19.228;2023-04-28T02:24:22;37.60;;;24.00;;
77117;SDS011;66072;50.238;19.228;2023-04-28T02:26:50;46.30;;;27.90;;
77117;SDS011;66072;50.238;19.228;2023-04-28T02:29:18;36.80;;;23.50;;
77117;SDS011;66072;50.238;19.228;2023-04-28T02:31:45;39.30;;;23.10;;
77117;SDS011;66072;50.238;19.228;2023-04-28T02:34:13;38.90;;;24.10;;
77117;SDS011;66072;50.238;19.228;2023-04-28T02:36:41;42.20;;;24.80;;
77117;SDS011;66072;50.238;19.228;2023-04-28T02:39:09;51.30;;;30.00;;
77117;SDS011;66072;50.238;19.228;2023-04-28T02:41:36;47.70;;;27.50;;
77117;SDS011;66072;50.238;19.228;2023-04-28T02:44:04;37.90;;;25.20;;
77117;SDS011;66072;50.238;19.228;2023-04-28T02:46:31;37.50;;;23.60;;
77117;SDS011;66072;50.238;19.228;2023-04-28T02:48:59;37.30;;;23.30;;
77117;SDS011;66072;50.238;19.228;2023-04-28T02:51:27;42.90;;;24.50;;
77117;SDS011;66072;50.238;19.228;2023-04-28T02:53:54;38.90;;;25.10;;
77117;SDS011;66072;50.238;19.228;2023-04-28T02:56:22;37.00;;;24.00;;
77117;SDS011;66072;50.238;19.228;2023-04-28T02:58:49;36.20;;;25.00;;
77117;SDS011;66072;50.238;19.228;2023-04-28T03:01:17;31.10;;;22.30;;
77117;SDS011;66072;50.238;19.228;2023-04-28T03:03:45;36.10;;;24.90;;
77117;SDS011;66072;50.238;19.228;2023-04-28T03:06:13;35.70;;;23.00;;
77117;SDS011;66072;50.238;19.228;2023-04-28T03:08:40;35.00;;;23.70;;
77117;SDS011;66072;50.238;19.228;2023-04-28T03:11:08;33.20;;;22.20;;
77117;SDS011;66072;50.238;19.228;2023-04-28T03:13:35;33.70;;;22.00;;
77117;SDS011;66072;50.238;19.228;2023-04-28T03:16:03;31.90;;;21.50;;
77117;SDS011;66072;50.238;19.228;2023-04-28T03:18:31;32.50;;;20.70;;
77117;SDS011;66072;50.238;19.228;2023-04-28T03:20:59;34.30;;;20.80;;
77117;SDS011;66072;50.238;19.228;2023-04-28T03:23:26;26.00;;;17.60;;
77117;SDS011;66072;50.238;19.228;2023-04-28T03:25:54;31.80;;;23.10;;
77117;SDS011;66072;50.238;19.228;2023-04-28T03:28:21;27.70;;;18.00;;
77117;SDS011;66072;50.238;19.228;2023-04-28T03:30:49;30.20;;;17.50;;
77117;SDS011;66072;50.238;19.228;2023-04-28T03:33:17;28.90;;;17.70;;
77117;SDS011;66072;50.238;19.228;2023-04-28T03:35:44;30.70;;;19.00;;
77117;SDS011;66072;50.238;19.228;2023-04-28T03:38:12;27.40;;;17.80;;
77117;SDS011;66072;50.238;19.228;2023-04-28T03:40:39;31.90;;;19.40;;
77117;SDS011;66072;50.238;19.228;2023-04-28T03:43:07;28.70;;;17.60;;
77117;SDS011;66072;50.238;19.228;2023-04-28T03:45:35;29.80;;;21.00;;
77117;SDS011;66072;50.238;19.228;2023-04-28T03:48:02;21.30;;;13.50;;
77117;SDS011;66072;50.238;19.228;2023-04-28T03:50:30;29.10;;;17.70;;
77117;SDS011;66072;50.238;19.228;2023-04-28T03:52:58;26.50;;;18.00;;
77117;SDS011;66072;50.238;19.228;2023-04-28T03:55:25;30.50;;;19.80;;
77117;SDS011;66072;50.238;19.228;2023-04-28T03:57:53;25.00;;;17.10;;
77117;SDS011;66072;50.238;19.228;2023-04-28T04:00:20;27.40;;;17.70;;
77117;SDS011;66072;50.238;19.228;2023-04-28T04:02:48;28.90;;;18.80;;
77117;SDS011;66072;50.238;19.228;2023-04-28T04:05:16;30.90;;;19.80;;
77117;SDS011;66072;50.238;19.228;2023-04-28T04:07:44;34.40;;;20.00;;
77117;SDS011;66072;50.238;19.228;2023-04-28T04:10:12;29.40;;;17.80;;
77117;SDS011;66072;50.238;19.228;2023-04-28T04:12:39;32.40;;;22.10;;
77117;SDS011;66072;50.238;19.228;2023-04-28T04:15:07;21.80;;;14.40;;
77117;SDS011;66072;50.238;19.228;2023-04-28T04:17:35;38.00;;;21.80;;
77117;SDS011;66072;50.238;19.228;2023-04-28T04:20:03;35.10;;;21.00;;
77117;SDS011;66072;50.238;19.228;2023-04-28T04:22:31;27.50;;;17.90;;
77117;SDS011;66072;50.238;19.228;2023-04-28T04:24:59;32.20;;;19.20;;
77117;SDS011;66072;50.238;19.228;2023-04-28T04:27:26;25.30;;;17.20;;
77117;SDS011;66072;50.238;19.228;2023-04-28T04:29:54;25.90;;;18.20;;
77117;SDS011;66072;50.238;19.228;2023-04-28T04:32:22;26.50;;;17.60;;
77117;SDS011;66072;50.238;19.228;2023-04-28T04:34:49;22.20;;;15.50;;
77117;SDS011;66072;50.238;19.228;2023-04-28T04:37:17;24.10;;;16.30;;
77117;SDS011;66072;50.238;19.228;2023-04-28T04:39:45;24.40;;;16.30;;
77117;SDS011;66072;50.238;19.228;2023-04-28T04:42:12;22.00;;;15.00;;
77117;SDS011;66072;50.238;19.228;2023-04-28T04:44:51;21.40;;;10.80;;
77117;SDS011;66072;50.238;19.228;2023-04-28T04:47:19;24.10;;;15.00;;
77117;SDS011;66072;50.238;19.228;2023-04-28T04:49:47;23.70;;;14.80;;
77117;SDS011;66072;50.238;19.228;2023-04-28T04:52:15;16.90;;;10.50;;
77117;SDS011;66072;50.238;19.228;2023-04-28T04:54:43;22.30;;;13.20;;
77117;SDS011;66072;50.238;19.228;2023-04-28T04:57:11;32.00;;;17.60;;
77117;SDS011;66072;50.238;19.228;2023-04-28T04:59:38;30.00;;;18.10;;
77117;SDS011;66072;50.238;19.228;2023-04-28T05:02:06;28.20;;;17.00;;
77117;SDS011;66072;50.238;19.228;2023-04-28T05:04:34;27.10;;;15.10;;
77117;SDS011;66072;50.238;19.228;2023-04-28T05:07:02;25.40;;;16.40;;
77117;SDS011;66072;50.238;19.228;2023-04-28T05:09:30;20.40;;;12.00;;
77117;SDS011;66072;50.238;19.228;2023-04-28T05:11:57;19.60;;;11.20;;
77117;SDS011;66072;50.238;19.228;2023-04-28T05:14:25;18.70;;;13.00;;
77117;SDS011;66072;50.238;19.228;2023-04-28T05:16:52;20.90;;;13.50;;
77117;SDS011;66072;50.238;19.228;2023-04-28T05:19:20;17.50;;;10.90;;
77117;SDS011;66072;50.238;19.228;2023-04-28T05:21:48;27.90;;;18.10;;
77117;SDS011;66072;50.238;19.228;2023-04-28T05:24:15;27.90;;;19.10;;
77117;SDS011;66072;50.238;19.228;2023-04-28T05:26:43;28.90;;;17.30;;
77117;SDS011;66072;50.238;19.228;2023-04-28T05:29:11;27.90;;;18.60;;
77117;SDS011;66072;50.238;19.228;2023-04-28T05:31:38;25.80;;;17.60;;
77117;SDS011;66072;50.238;19.228;2023-04-28T05:34:06;27.50;;;15.50;;
77117;SDS011;66072;50.238;19.228;2023-04-28T05:36:34;24.30;;;15.10;;
77117;SDS011;66072;50.238;19.228;2023-04-28T05:39:01;24.30;;;13.80;;
77117;SDS011;66072;50.238;19.228;2023-04-28T05:41:29;19.40;;;12.40;;
77117;SDS011;66072;50.238;19.228;2023-04-28T05:43:57;20.10;;;13.70;;
77117;SDS011;66072;50.238;19.228;2023-04-28T05:46:24;25.30;;;14.90;;
77117;SDS011;66072;50.238;19.228;2023-04-28T05:48:57;22.70;;;13.30;;
77117;SDS011;66072;50.238;19.228;2023-04-28T05:51:25;18.50;;;11.90;;
77117;SDS011;66072;50.238;19.228;2023-04-28T05:53:52;22.20;;;13.00;;
77117;SDS011;66072;50.238;19.228;2023-04-28T05:56:20;17.20;;;12.30;;
77117;SDS011;66072;50.238;19.228;2023-04-28T05:58:48;16.10;;;11.40;;
77117;SDS011;66072;50.238;19.228;2023-04-28T06:01:16;14.00;;;8.50;;
77117;SDS011;66072;50.238;19.228;2023-04-28T06:03:44;22.50;;;12.80;;
77117;SDS011;66072;50.238;19.228;2023-04-28T06:06:12;19.60;;;12.40;;
77117;SDS011;66072;50.238;19.228;2023-04-28T06:08:39;19.20;;;10.80;;
77117;SDS011;66072;50.238;19.228;2023-04-28T06:11:07;15.10;;;10.80;;
77117;SDS011;66072;50.238;19.228;2023-04-28T06:13:35;17.10;;;11.20;;
77117;SDS011;66072;50.238;19.228;2023-04-28T06:16:02;18.20;;;12.30;;
77117;SDS011;66072;50.238;19.228;2023-04-28T06:18:30;17.50;;;11.90;;
77117;SDS011;66072;50.238;19.228;2023-04-28T06:20:58;19.30;;;11.40;;
77117;SDS011;66072;50.238;19.228;2023-04-28T06:23:26;16.70;;;10.90;;
77117;SDS011;66072;50.238;19.228;2023-04-28T06:25:53;13.10;;;8.80;;
77117;SDS011;66072;50.238;19.228;2023-04-28T06:28:21;15.80;;;10.00;;
77117;SDS011;66072;50.238;19.228;2023-04-28T06:30:49;14.60;;;9.10;;
77117;SDS011;66072;50.238;19.228;2023-04-28T06:33:16;15.60;;;10.20;;
77117;SDS011;66072;50.238;19.228;2023-04-28T06:35:44;16.50;;;11.00;;
77117;SDS011;66072;50.238;19.228;2023-04-28T06:38:11;17.10;;;11.10;;
77117;SDS011;66072;50.238;19.228;2023-04-28T06:40:39;16.50;;;10.30;;
77117;SDS011;66072;50.238;19.228;2023-04-28T06:43:07;16.70;;;10.40;;
77117;SDS011;66072;50.238;19.228;2023-04-28T06:45:34;14.90;;;8.60;;
77117;SDS011;66072;50.238;19.228;2023-04-28T06:48:02;14.80;;;9.90;;
77117;SDS011;66072;50.238;19.228;2023-04-28T06:50:30;13.10;;;7.70;;
77117;SDS011;66072;50.238;19.228;2023-04-28T06:52:57;15.50;;;10.60;;
77117;SDS011;66072;50.238;19.228;2023-04-28T06:55:25;13.60;;;9.30;;
77117;SDS011;66072;50.238;19.228;2023-04-28T06:57:53;15.10;;;10.20;;
77117;SDS011;66072;50.238;19.228;2023-04-28T07:00:21;14.10;;;9.30;;
77117;SDS011;66072;50.238;19.228;2023-04-28T07:02:48;16.10;;;9.70;;
77117;SDS011;66072;50.238;19.228;2023-04-28T07:05:16;15.40;;;10.00;;
77117;SDS011;66072;50.238;19.228;2023-04-28T07:07:44;11.70;;;8.30;;
77117;SDS011;66072;50.238;19.228;2023-04-28T07:10:11;11.00;;;7.30;;
77117;SDS011;66072;50.238;19.228;2023-04-28T07:12:39;10.20;;;6.90;;
77117;SDS011;66072;50.238;19.228;2023-04-28T07:15:06;10.40;;;6.80;;
77117;SDS011;66072;50.238;19.228;2023-04-28T07:20:04;11.00;;;6.30;;
77117;SDS011;66072;50.238;19.228;2023-04-28T07:22:32;12.30;;;7.20;;
77117;SDS011;66072;50.238;19.228;2023-04-28T07:25:00;8.70;;;7.00;;
77117;SDS011;66072;50.238;19.228;2023-04-28T07:27:27;12.50;;;7.30;;
77117;SDS011;66072;50.238;19.228;2023-04-28T07:29:55;11.20;;;7.90;;
77117;SDS011;66072;50.238;19.228;2023-04-28T07:32:23;11.50;;;8.00;;
77117;SDS011;66072;50.238;19.228;2023-04-28T07:34:51;9.80;;;7.00;;
77117;SDS011;66072;50.238;19.228;2023-04-28T07:37:18;9.60;;;6.40;;
77117;SDS011;66072;50.238;19.228;2023-04-28T07:39:46;11.20;;;7.50;;
77117;SDS011;66072;50.238;19.228;2023-04-28T07:42:13;12.90;;;7.80;;
77117;SDS011;66072;50.238;19.228;2023-04-28T07:44:41;10.80;;;7.30;;
77117;SDS011;66072;50.238;19.228;2023-04-28T07:47:09;10.40;;;8.00;;
77117;SDS011;66072;50.238;19.228;2023-04-28T07:49:36;11.20;;;7.40;;
77117;SDS011;66072;50.238;19.228;2023-04-28T07:52:04;11.00;;;7.00;;
77117;SDS011;66072;50.238;19.228;2023-04-28T07:54:31;9.00;;;6.20;;
77117;SDS011;66072;50.238;19.228;2023-04-28T07:57:02;10.10;;;5.70;;
77117;SDS011;66072;50.238;19.228;2023-04-28T07:59:29;8.60;;;5.70;;
77117;SDS011;66072;50.238;19.228;2023-04-28T08:01:57;11.00;;;6.20;;
77117;SDS011;66072;50.238;19.228;2023-04-28T08:04:24;7.10;;;4.70;;
77117;SDS011;66072;50.238;19.228;2023-04-28T08:06:53;7.10;;;4.70;;
77117;SDS011;66072;50.238;19.228;2023-04-28T08:09:21;7.50;;;4.40;;
77117;SDS011;66072;50.238;19.228;2023-04-28T08:11:50;7.50;;;4.90;;
77117;SDS011;66072;50.238;19.228;2023-04-28T08:14:18;7.40;;;5.20;;
77117;SDS011;66072;50.238;19.228;2023-04-28T08:16:46;10.80;;;5.10;;
77117;SDS011;66072;50.238;19.228;2023-04-28T08:19:14;9.60;;;5.20;;
77117;SDS011;66072;50.238;19.228;2023-04-28T08:21:42;7.40;;;5.30;;
77117;SDS011;66072;50.238;19.228;2023-04-28T08:24:10;5.40;;;3.50;;
77117;SDS011;66072;50.238;19.228;2023-04-28T08:26:37;6.20;;;4.20;;
77117;SDS011;66072;50.238;19.228;2023-04-28T08:29:05;8.40;;;3.90;;
77117;SDS011;66072;50.238;19.228;2023-04-28T08:31:32;7.10;;;3.60;;
77117;SDS011;66072;50.238;19.228;2023-04-28T08:34:00;5.40;;;2.60;;
77117;SDS011;66072;50.238;19.228;2023-04-28T08:36:28;6.90;;;3.30;;
77117;SDS011;66072;50.238;19.228;2023-04-28T08:38:55;5.90;;;4.10;;
77117;SDS011;66072;50.238;19.228;2023-04-28T08:41:23;6.60;;;3.60;;
77117;SDS011;66072;50.238;19.228;2023-04-28T08:43:51;5.80;;;4.10;;
77117;SDS011;66072;50.238;19.228;2023-04-28T08:46:20;6.40;;;3.20;;
77117;SDS011;66072;50.238;19.228;2023-04-28T08:48:48;7.00;;;3.60;;
77117;SDS011;66072;50.238;19.228;2023-04-28T08:51:24;5.40;;;3.30;;
77117;SDS011;66072;50.238;19.228;2023-04-28T08:53:59;6.60;;;4.00;;
77117;SDS011;66072;50.238;19.228;2023-04-28T08:56:32;5.90;;;4.00;;
77117;SDS011;66072;50.238;19.228;2023-04-28T08:59:03;5.90;;;4.30;;
77117;SDS011;66072;50.238;19.228;2023-04-28T09:01:31;8.40;;;4.40;;
77117;SDS011;66072;50.238;19.228;2023-04-28T09:04:02;6.00;;;3.70;;
77117;SDS011;66072;50.238;19.228;2023-04-28T09:06:31;6.30;;;4.70;;
77117;SDS011;66072;50.238;19.228;2023-04-28T09:09:18;5.40;;;3.90;;
77117;SDS011;66072;50.238;19.228;2023-04-28T09:11:50;4.00;;;2.80;;
77117;SDS011;66072;50.238;19.228;2023-04-28T09:14:18;4.50;;;3.50;;
77117;SDS011;66072;50.238;19.228;2023-04-28T09:16:46;6.60;;;4.30;;
77117;SDS011;66072;50.238;19.228;2023-04-28T09:19:14;7.00;;;4.10;;
77117;SDS011;66072;50.238;19.228;2023-04-28T09:21:46;8.40;;;4.20;;
77117;SDS011;66072;50.238;19.228;2023-04-28T09:27:04;6.90;;;5.30;;
77117;SDS011;66072;50.238;19.228;2023-04-28T09:29:33;6.80;;;4.00;;
77117;SDS011;66072;50.238;19.228;2023-04-28T09:34:51;6.40;;;4.60;;
77117;SDS011;66072;50.238;19.228;2023-04-28T09:39:52;7.40;;;4.00;;
77117;SDS011;66072;50.238;19.228;2023-04-28T09:45:10;11.70;;;5.40;;
77117;SDS011;66072;50.238;19.228;2023-04-28T09:47:40;5.90;;;4.60;;
77117;SDS011;66072;50.238;19.228;2023-04-28T09:50:10;7.70;;;4.40;;
77117;SDS011;66072;50.238;19.228;2023-04-28T09:52:40;8.20;;;5.00;;
77117;SDS011;66072;50.238;19.228;2023-04-28T09:55:08;7.00;;;4.40;;
77117;SDS011;66072;50.238;19.228;2023-04-28T09:57:38;8.30;;;4.30;;
77117;SDS011;66072;50.238;19.228;2023-04-28T10:00:06;7.90;;;4.60;;
77117;SDS011;66072;50.238;19.228;2023-04-28T10:02:35;6.00;;;4.50;;
77117;SDS011;66072;50.238;19.228;2023-04-28T10:05:08;6.70;;;4.30;;
77117;SDS011;66072;50.238;19.228;2023-04-28T10:07:37;12.10;;;5.80;;
77117;SDS011;66072;50.238;19.228;2023-04-28T10:10:06;11.10;;;5.10;;
77117;SDS011;66072;50.238;19.228;2023-04-28T10:12:34;6.40;;;4.10;;
77117;SDS011;66072;50.238;19.228;2023-04-28T10:15:02;9.20;;;4.50;;
77117;SDS011;66072;50.238;19.228;2023-04-28T10:17:30;8.40;;;4.60;;
77117;SDS011;66072;50.238;19.228;2023-04-28T10:19:58;6.20;;;4.50;;
77117;SDS011;66072;50.238;19.228;2023-04-28T10:22:36;5.30;;;4.60;;
77117;SDS011;66072;50.238;19.228;2023-04-28T10:25:32;10.40;;;4.90;;
77117;SDS011;66072;50.238;19.228;2023-04-28T10:28:05;7.10;;;3.70;;
77117;SDS011;66072;50.238;19.228;2023-04-28T10:30:35;6.40;;;4.00;;
77117;SDS011;66072;50.238;19.228;2023-04-28T10:35:40;7.40;;;3.80;;
77117;SDS011;66072;50.238;19.228;2023-04-28T10:38:11;5.90;;;3.90;;
77117;SDS011;66072;50.238;19.228;2023-04-28T10:40:40;8.00;;;5.30;;
77117;SDS011;66072;50.238;19.228;2023-04-28T10:56:14;8.20;;;4.80;;
77117;SDS011;66072;50.238;19.228;2023-04-28T10:58:46;6.60;;;4.90;;
77117;SDS011;66072;50.238;19.228;2023-04-28T11:03:50;7.20;;;4.30;;
77117;SDS011;66072;50.238;19.228;2023-04-28T11:08:50;6.10;;;4.60;;
77117;SDS011;66072;50.238;19.228;2023-04-28T11:16:52;7.90;;;4.50;;
77117;SDS011;66072;50.238;19.228;2023-04-28T11:21:56;6.70;;;4.10;;
77117;SDS011;66072;50.238;19.228;2023-04-28T11:24:26;7.60;;;4.70;;
77117;SDS011;66072;50.238;19.228;2023-04-28T11:26:56;6.50;;;4.10;;
77117;SDS011;66072;50.238;19.228;2023-04-28T11:29:31;5.90;;;3.50;;
77117;SDS011;66072;50.238;19.228;2023-04-28T11:32:00;4.50;;;3.30;;
77117;SDS011;66072;50.238;19.228;2023-04-28T11:34:31;5.60;;;3.40;;
77117;SDS011;66072;50.238;19.228;2023-04-28T11:37:00;7.00;;;3.80;;
77117;SDS011;66072;50.238;19.228;2023-04-28T11:39:29;5.10;;;3.30;;
77117;SDS011;66072;50.238;19.228;2023-04-28T11:41:58;4.80;;;3.80;;
77117;SDS011;66072;50.238;19.228;2023-04-28T11:44:28;5.30;;;3.20;;
77117;SDS011;66072;50.238;19.228;2023-04-28T11:46:58;5.80;;;3.80;;
77117;SDS011;66072;50.238;19.228;2023-04-28T11:49:40;9.80;;;3.90;;
77117;SDS011;66072;50.238;19.228;2023-04-28T11:54:37;6.90;;;3.60;;
77117;SDS011;66072;50.238;19.228;2023-04-28T11:57:05;4.90;;;3.00;;
77117;SDS011;66072;50.238;19.228;2023-04-28T11:59:33;5.10;;;2.90;;
77117;SDS011;66072;50.238;19.228;2023-04-28T12:02:07;7.10;;;3.90;;
77117;SDS011;66072;50.238;19.228;2023-04-28T12:04:36;14.00;;;4.40;;
77117;SDS011;66072;50.238;19.228;2023-04-28T12:07:08;5.40;;;3.70;;
77117;SDS011;66072;50.238;19.228;2023-04-28T12:10:23;5.50;;;3.40;;
77117;SDS011;66072;50.238;19.228;2023-04-28T12:12:38;7.10;;;3.80;;
77117;SDS011;66072;50.238;19.228;2023-04-28T12:15:17;5.70;;;3.70;;
77117;SDS011;66072;50.238;19.228;2023-04-28T12:17:47;5.40;;;3.40;;
77117;SDS011;66072;50.238;19.228;2023-04-28T12:23:02;6.90;;;3.90;;
77117;SDS011;66072;50.238;19.228;2023-04-28T12:25:30;6.20;;;3.40;;
77117;SDS011;66072;50.238;19.228;2023-04-28T12:27:59;5.50;;;3.30;;
77117;SDS011;66072;50.238;19.228;2023-04-28T12:30:35;6.50;;;3.40;;
77117;SDS011;66072;50.238;19.228;2023-04-28T12:36:41;5.90;;;3.30;;
77117;SDS011;66072;50.238;19.228;2023-04-28T12:39:12;5.50;;;3.10;;
77117;SDS011;66072;50.238;19.228;2023-04-28T12:41:40;5.50;;;3.50;;
77117;SDS011;66072;50.238;19.228;2023-04-28T12:44:08;4.80;;;3.20;;
77117;SDS011;66072;50.238;19.228;2023-04-28T12:46:36;7.60;;;3.90;;
77117;SDS011;66072;50.238;19.228;2023-04-28T12:49:04;8.40;;;3.20;;
77117;SDS011;66072;50.238;19.228;2023-04-28T12:51:32;7.80;;;3.70;;
77117;SDS011;66072;50.238;19.228;2023-04-28T12:54:00;5.50;;;3.20;;
77117;SDS011;66072;50.238;19.228;2023-04-28T12:56:27;6.90;;;3.30;;
77117;SDS011;66072;50.238;19.228;2023-04-28T12:58:55;4.60;;;3.10;;
77117;SDS011;66072;50.238;19.228;2023-04-28T13:01:23;4.10;;;2.80;;
77117;SDS011;66072;50.238;19.228;2023-04-28T13:03:50;4.50;;;2.10;;
77117;SDS011;66072;50.238;19.228;2023-04-28T13:08:47;3.60;;;1.90;;
77117;SDS011;66072;50.238;19.228;2023-04-28T13:11:15;4.70;;;2.60;;
77117;SDS011;66072;50.238;19.228;2023-04-28T13:13:51;3.70;;;2.10;;
77117;SDS011;66072;50.238;19.228;2023-04-28T13:16:19;5.00;;;2.70;;
77117;SDS011;66072;50.238;19.228;2023-04-28T13:18:49;3.60;;;1.80;;
77117;SDS011;66072;50.238;19.228;2023-04-28T13:21:17;4.20;;;2.20;;
77117;SDS011;66072;50.238;19.228;2023-04-28T13:23:45;3.30;;;1.90;;
77117;SDS011;66072;50.238;19.228;2023-04-28T13:26:13;5.80;;;2.20;;
77117;SDS011;66072;50.238;19.228;2023-04-28T13:28:40;4.10;;;1.80;;
77117;SDS011;66072;50.238;19.228;2023-04-28T13:31:08;4.30;;;2.10;;
77117;SDS011;66072;50.238;19.228;2023-04-28T13:33:36;5.50;;;2.60;;
77117;SDS011;66072;50.238;19.228;2023-04-28T13:36:03;3.80;;;2.10;;
77117;SDS011;66072;50.238;19.228;2023-04-28T13:38:31;4.80;;;2.40;;
77117;SDS011;66072;50.238;19.228;2023-04-28T13:40:59;3.40;;;1.70;;
77117;SDS011;66072;50.238;19.228;2023-04-28T13:43:27;6.50;;;2.60;;
77117;SDS011;66072;50.238;19.228;2023-04-28T13:45:55;5.10;;;2.50;;
77117;SDS011;66072;50.238;19.228;2023-04-28T13:48:23;3.50;;;2.00;;
77117;SDS011;66072;50.238;19.228;2023-04-28T13:50:50;7.70;;;2.20;;
77117;SDS011;66072;50.238;19.228;2023-04-28T13:53:18;3.90;;;2.00;;
77117;SDS011;66072;50.238;19.228;2023-04-28T13:55:47;6.50;;;2.50;;
77117;SDS011;66072;50.238;19.228;2023-04-28T13:58:16;5.10;;;2.10;;
77117;SDS011;66072;50.238;19.228;2023-04-28T14:00:44;5.10;;;2.30;;
77117;SDS011;66072;50.238;19.228;2023-04-28T14:03:11;4.40;;;2.20;;
77117;SDS011;66072;50.238;19.228;2023-04-28T14:05:39;5.00;;;2.40;;
77117;SDS011;66072;50.238;19.228;2023-04-28T14:08:16;4.50;;;1.70;;
77117;SDS011;66072;50.238;19.228;2023-04-28T14:10:47;6.00;;;2.20;;
77117;SDS011;66072;50.238;19.228;2023-04-28T14:13:15;4.50;;;2.10;;
77117;SDS011;66072;50.238;19.228;2023-04-28T14:15:44;5.40;;;1.90;;
77117;SDS011;66072;50.238;19.228;2023-04-28T14:18:25;4.20;;;2.10;;
77117;SDS011;66072;50.238;19.228;2023-04-28T14:20:54;4.40;;;1.90;;
77117;SDS011;66072;50.238;19.228;2023-04-28T14:23:22;3.90;;;2.00;;
77117;SDS011;66072;50.238;19.228;2023-04-28T14:25:51;5.60;;;2.40;;
77117;SDS011;66072;50.238;19.228;2023-04-28T14:28:22;4.10;;;2.30;;
77117;SDS011;66072;50.238;19.228;2023-04-28T14:30:52;8.60;;;3.00;;
77117;SDS011;66072;50.238;19.228;2023-04-28T14:33:20;6.20;;;2.50;;
77117;SDS011;66072;50.238;19.228;2023-04-28T14:35:48;4.10;;;2.60;;
77117;SDS011;66072;50.238;19.228;2023-04-28T14:38:15;5.60;;;3.10;;
77117;SDS011;66072;50.238;19.228;2023-04-28T14:40:43;4.80;;;2.50;;
77117;SDS011;66072;50.238;19.228;2023-04-28T14:43:11;5.20;;;2.60;;
77117;SDS011;66072;50.238;19.228;2023-04-28T14:45:39;6.20;;;2.80;;
77117;SDS011;66072;50.238;19.228;2023-04-28T14:48:06;6.90;;;2.80;;
77117;SDS011;66072;50.238;19.228;2023-04-28T14:50:34;5.90;;;3.20;;
77117;SDS011;66072;50.238;19.228;2023-04-28T14:53:02;5.30;;;3.00;;
77117;SDS011;66072;50.238;19.228;2023-04-28T14:55:30;6.20;;;2.90;;
77117;SDS011;66072;50.238;19.228;2023-04-28T14:57:58;5.70;;;3.00;;
77117;SDS011;66072;50.238;19.228;2023-04-28T15:00:26;4.10;;;2.30;;
77117;SDS011;66072;50.238;19.228;2023-04-28T15:02:54;5.30;;;2.90;;
77117;SDS011;66072;50.238;19.228;2023-04-28T15:05:21;8.30;;;2.70;;
77117;SDS011;66072;50.238;19.228;2023-04-28T15:07:49;6.00;;;3.20;;
77117;SDS011;66072;50.238;19.228;2023-04-28T15:10:17;4.60;;;3.00;;
77117;SDS011;66072;50.238;19.228;2023-04-28T15:12:44;5.30;;;3.20;;
77117;SDS011;66072;50.238;19.228;2023-04-28T15:15:14;5.40;;;3.00;;
77117;SDS011;66072;50.238;19.228;2023-04-28T15:17:42;4.50;;;3.10;;
77117;SDS011;66072;50.238;19.228;2023-04-28T15:20:10;6.50;;;3.80;;
77117;SDS011;66072;50.238;19.228;2023-04-28T15:22:37;5.90;;;3.30;;